Terminal Aerodrome Forecast
Issued by NWS Cleveland, OH

Home | Current Version | Previous Version | Text Only | Print | Product List | Glossary Off
Versions: 1 2 3 4 5 6 7 8 9 10 11 12 13 14 15 16 17 18 19 20 21 22 23 24 25 26 27 28 29 30

000
FTUS41 KCLE 172300 RRA
TAFCLE
TAF
KCLE 172343Z 1800/1906 01005KT P6SM FEW250
     FM180400 18002KT 6SM BR SCT250
     FM181300 31006KT P6SM FEW050 SCT250
     FM181800 01012KT P6SM SCT050 BKN250
     FM190100 05008KT P6SM FEW045 SCT200=

USA.gov is the U.S. government's official web portal to all federal, state and local government web resources and services.